sensor_id;sensor_type;location;lat;lon;timestamp;pressure;altitude;pressure_sealevel;temperature;humidity
64192;BME280;50497;50.720;-2.084;2023-04-19T00:00:35;103316.34;;;6.69;100.00
64192;BME280;50497;50.720;-2.084;2023-04-19T00:03:01;103295.88;;;6.63;100.00
64192;BME280;50497;50.720;-2.084;2023-04-19T00:05:27;103332.50;;;6.88;100.00
64192;BME280;50497;50.720;-2.084;2023-04-19T00:07:53;103331.72;;;6.99;100.00
64192;BME280;50497;50.720;-2.084;2023-04-19T00:10:19;103295.09;;;6.75;100.00
64192;BME280;50497;50.720;-2.084;2023-04-19T00:12:45;103311.28;;;6.98;100.00
64192;BME280;50497;50.720;-2.084;2023-04-19T00:15:10;103282.84;;;6.91;100.00
64192;BME280;50497;50.720;-2.084;2023-04-19T00:17:36;103300.75;;;7.08;100.00
64192;BME280;50497;50.720;-2.084;2023-04-19T00:20:03;103286.50;;;7.07;100.00
64192;BME280;50497;50.720;-2.084;2023-04-19T00:22:29;103246.44;;;6.89;100.00
64192;BME280;50497;50.720;-2.084;2023-04-19T00:24:55;103273.22;;;7.06;100.00
64192;BME280;50497;50.720;-2.084;2023-04-19T00:27:20;103275.94;;;7.15;100.00
64192;BME280;50497;50.720;-2.084;2023-04-19T00:29:46;103266.16;;;7.09;100.00
64192;BME280;50497;50.720;-2.084;2023-04-19T00:32:11;103226.94;;;6.90;100.00
64192;BME280;50497;50.720;-2.084;2023-04-19T00:34:37;103251.06;;;7.11;100.00
64192;BME280;50497;50.720;-2.084;2023-04-19T00:37:02;103250.19;;;7.14;100.00
64192;BME280;50497;50.720;-2.084;2023-04-19T00:39:31;103234.22;;;7.11;100.00
64192;BME280;50497;50.720;-2.084;2023-04-19T00:41:56;103236.88;;;7.12;100.00
64192;BME280;50497;50.720;-2.084;2023-04-19T00:44:22;103198.53;;;6.89;100.00
64192;BME280;50497;50.720;-2.084;2023-04-19T00:46:48;103225.31;;;7.12;100.00
64192;BME280;50497;50.720;-2.084;2023-04-19T00:49:16;103225.28;;;7.02;100.00
64192;BME280;50497;50.720;-2.084;2023-04-19T00:51:42;103224.38;;;6.99;100.00
64192;BME280;50497;50.720;-2.084;2023-04-19T00:54:12;103214.56;;;6.95;100.00
64192;BME280;50497;50.720;-2.084;2023-04-19T00:56:38;103227.97;;;7.10;100.00
64192;BME280;50497;50.720;-2.084;2023-04-19T00:59:04;103230.63;;;7.06;100.00
64192;BME280;50497;50.720;-2.084;2023-04-19T01:01:30;103212.78;;;6.95;100.00
64192;BME280;50497;50.720;-2.084;2023-04-19T01:03:56;103226.22;;;7.09;100.00
64192;BME280;50497;50.720;-2.084;2023-04-19T01:06:22;103226.22;;;7.09;100.00
64192;BME280;50497;50.720;-2.084;2023-04-19T01:08:47;103226.25;;;7.12;100.00
64192;BME280;50497;50.720;-2.084;2023-04-19T01:11:13;103235.94;;;7.09;100.00
64192;BME280;50497;50.720;-2.084;2023-04-19T01:13:38;103200.31;;;6.87;100.00
64192;BME280;50497;50.720;-2.084;2023-04-19T01:16:05;103219.03;;;6.99;100.00
64192;BME280;50497;50.720;-2.084;2023-04-19T01:18:31;103191.47;;;6.89;100.00
64192;BME280;50497;50.720;-2.084;2023-04-19T01:21:02;103195.91;;;6.92;100.00
64192;BME280;50497;50.720;-2.084;2023-04-19T01:23:28;103197.72;;;6.96;100.00
64192;BME280;50497;50.720;-2.084;2023-04-19T01:25:54;103239.50;;;7.06;100.00
64192;BME280;50497;50.720;-2.084;2023-04-19T01:28:20;103241.34;;;7.18;100.00
64192;BME280;50497;50.720;-2.084;2023-04-19T01:30:45;103211.91;;;6.96;100.00
64192;BME280;50497;50.720;-2.084;2023-04-19T01:33:11;103253.78;;;7.22;100.00
64192;BME280;50497;50.720;-2.084;2023-04-19T01:35:36;103245.81;;;7.24;100.00
64192;BME280;50497;50.720;-2.084;2023-04-19T01:38:02;103223.56;;;7.09;100.00
64192;BME280;50497;50.720;-2.084;2023-04-19T01:40:27;103251.13;;;7.24;100.00
64192;BME280;50497;50.720;-2.084;2023-04-19T01:42:53;103264.50;;;7.30;100.00
64192;BME280;50497;50.720;-2.084;2023-04-19T01:45:19;103268.03;;;7.29;100.00
64192;BME280;50497;50.720;-2.084;2023-04-19T01:47:44;103277.81;;;7.30;100.00
64192;BME280;50497;50.720;-2.084;2023-04-19T01:50:10;103295.59;;;7.29;100.00
64192;BME280;50497;50.720;-2.084;2023-04-19T01:52:35;103250.13;;;7.03;100.00
64192;BME280;50497;50.720;-2.084;2023-04-19T01:55:01;103300.88;;;7.28;100.00
64192;BME280;50497;50.720;-2.084;2023-04-19T01:57:26;103303.56;;;7.29;100.00
64192;BME280;50497;50.720;-2.084;2023-04-19T01:59:52;103334.59;;;7.29;100.00
64192;BME280;50497;50.720;-2.084;2023-04-19T02:02:21;103352.34;;;7.27;100.00
64192;BME280;50497;50.720;-2.084;2023-04-19T02:04:46;103322.06;;;7.09;100.00
64192;BME280;50497;50.720;-2.084;2023-04-19T02:07:12;103377.28;;;7.36;100.00
64192;BME280;50497;50.720;-2.084;2023-04-19T02:09:38;103368.50;;;7.48;100.00
64192;BME280;50497;50.720;-2.084;2023-04-19T02:12:04;103400.50;;;7.51;100.00
64192;BME280;50497;50.720;-2.084;2023-04-19T02:14:30;103405.88;;;7.57;100.00
64192;BME280;50497;50.720;-2.084;2023-04-19T02:16:56;103422.00;;;7.73;100.00
64192;BME280;50497;50.720;-2.084;2023-04-19T02:19:22;103413.13;;;7.74;100.00
64192;BME280;50497;50.720;-2.084;2023-04-19T02:21:48;103418.47;;;7.77;100.00
64192;BME280;50497;50.720;-2.084;2023-04-19T02:24:13;103405.97;;;7.68;100.00
64192;BME280;50497;50.720;-2.084;2023-04-19T02:26:39;103436.28;;;7.84;100.00
64192;BME280;50497;50.720;-2.084;2023-04-19T02:29:05;103423.91;;;7.91;100.00
64192;BME280;50497;50.720;-2.084;2023-04-19T02:31:31;103391.75;;;7.69;100.00
64192;BME280;50497;50.720;-2.084;2023-04-19T02:33:56;103452.34;;;7.92;100.00
64192;BME280;50497;50.720;-2.084;2023-04-19T02:36:22;103439.75;;;7.71;100.00
64192;BME280;50497;50.720;-2.084;2023-04-19T02:38:47;103480.69;;;7.79;100.00
64192;BME280;50497;50.720;-2.084;2023-04-19T02:41:13;103518.13;;;7.94;100.00
64192;BME280;50497;50.720;-2.084;2023-04-19T02:43:38;103493.13;;;7.82;100.00
64192;BME280;50497;50.720;-2.084;2023-04-19T02:46:04;103536.78;;;7.94;100.00
64192;BME280;50497;50.720;-2.084;2023-04-19T02:48:30;103544.81;;;7.98;100.00
64192;BME280;50497;50.720;-2.084;2023-04-19T02:50:57;103546.63;;;8.05;100.00
64192;BME280;50497;50.720;-2.084;2023-04-19T02:53:23;103548.38;;;8.00;100.00
64192;BME280;50497;50.720;-2.084;2023-04-19T02:55:49;103551.03;;;8.00;100.00
64192;BME280;50497;50.720;-2.084;2023-04-19T02:58:14;103550.16;;;8.01;100.00
64192;BME280;50497;50.720;-2.084;2023-04-19T03:00:40;103544.88;;;8.04;100.00
64192;BME280;50497;50.720;-2.084;2023-04-19T03:03:06;103526.06;;;7.91;100.00
64192;BME280;50497;50.720;-2.084;2023-04-19T03:05:32;103536.91;;;8.07;100.00
64192;BME280;50497;50.720;-2.084;2023-04-19T03:07:57;103548.47;;;8.10;100.00
64192;BME280;50497;50.720;-2.084;2023-04-19T03:10:23;103550.22;;;8.07;100.00
64192;BME280;50497;50.720;-2.084;2023-04-19T03:12:52;103563.59;;;8.14;100.00
64192;BME280;50497;50.720;-2.084;2023-04-19T03:15:18;103538.66;;;8.08;100.00
64192;BME280;50497;50.720;-2.084;2023-04-19T03:17:44;103555.63;;;8.18;100.00
64192;BME280;50497;50.720;-2.084;2023-04-19T03:20:10;103513.69;;;7.98;100.00
64192;BME280;50497;50.720;-2.084;2023-04-19T03:22:36;103558.31;;;8.19;100.00
64192;BME280;50497;50.720;-2.084;2023-04-19T03:25:05;103559.19;;;8.18;100.00
64192;BME280;50497;50.720;-2.084;2023-04-19T03:27:34;103562.78;;;8.22;100.00
64192;BME280;50497;50.720;-2.084;2023-04-19T03:30:00;103560.09;;;8.20;100.00
64192;BME280;50497;50.720;-2.084;2023-04-19T03:32:25;103544.97;;;8.19;100.00
64192;BME280;50497;50.720;-2.084;2023-04-19T03:34:51;103528.91;;;8.07;100.00
64192;BME280;50497;50.720;-2.084;2023-04-19T03:37:16;103517.31;;;8.06;100.00
64192;BME280;50497;50.720;-2.084;2023-04-19T03:39:42;103559.25;;;8.27;100.00
64192;BME280;50497;50.720;-2.084;2023-04-19T03:42:07;103519.09;;;8.06;100.00
64192;BME280;50497;50.720;-2.084;2023-04-19T03:44:33;103555.72;;;8.33;100.00
64192;BME280;50497;50.720;-2.084;2023-04-19T03:46:58;103561.97;;;8.30;100.00
64192;BME280;50497;50.720;-2.084;2023-04-19T03:49:24;103549.44;;;8.25;100.00
64192;BME280;50497;50.720;-2.084;2023-04-19T03:51:49;103555.69;;;8.25;100.00
64192;BME280;50497;50.720;-2.084;2023-04-19T03:54:15;103536.13;;;8.22;100.00
64192;BME280;50497;50.720;-2.084;2023-04-19T03:56:41;103545.91;;;8.26;100.00
64192;BME280;50497;50.720;-2.084;2023-04-19T03:59:06;103519.19;;;8.20;100.00
64192;BME280;50497;50.720;-2.084;2023-04-19T04:01:32;103504.94;;;8.14;100.00
64192;BME280;50497;50.720;-2.084;2023-04-19T04:03:57;103537.03;;;8.30;100.00
64192;BME280;50497;50.720;-2.084;2023-04-19T04:06:23;103507.59;;;8.13;100.00
64192;BME280;50497;50.720;-2.084;2023-04-19T04:08:52;103528.13;;;8.28;100.00
64192;BME280;50497;50.720;-2.084;2023-04-19T04:11:17;103519.22;;;8.24;100.00
64192;BME280;50497;50.720;-2.084;2023-04-19T04:13:43;103542.41;;;8.36;100.00
64192;BME280;50497;50.720;-2.084;2023-04-19T04:16:10;103531.69;;;8.30;100.00
64192;BME280;50497;50.720;-2.084;2023-04-19T04:18:36;103532.66;;;8.33;100.00
64192;BME280;50497;50.720;-2.084;2023-04-19T04:21:01;103535.31;;;8.33;100.00
64192;BME280;50497;50.720;-2.084;2023-04-19T04:23:27;103525.53;;;8.36;100.00
64192;BME280;50497;50.720;-2.084;2023-04-19T04:25:59;103525.53;;;8.36;100.00
64192;BME280;50497;50.720;-2.084;2023-04-19T04:28:26;103496.94;;;8.16;100.00
64192;BME280;50497;50.720;-2.084;2023-04-19T04:30:52;103530.88;;;8.37;100.00
64192;BME280;50497;50.720;-2.084;2023-04-19T04:33:17;103517.50;;;8.31;100.00
64192;BME280;50497;50.720;-2.084;2023-04-19T04:35:43;103497.81;;;8.15;100.00
64192;BME280;50497;50.720;-2.084;2023-04-19T04:38:08;103527.31;;;8.33;100.00
64192;BME280;50497;50.720;-2.084;2023-04-19T04:40:35;103494.31;;;8.21;100.00
64192;BME280;50497;50.720;-2.084;2023-04-19T04:43:00;103507.75;;;8.39;100.00
64192;BME280;50497;50.720;-2.084;2023-04-19T04:45:28;103520.22;;;8.39;100.00
64192;BME280;50497;50.720;-2.084;2023-04-19T04:47:54;103505.94;;;8.37;100.00
64192;BME280;50497;50.720;-2.084;2023-04-19T04:50:19;103505.09;;;8.41;100.00
64192;BME280;50497;50.720;-2.084;2023-04-19T04:52:44;103515.75;;;8.38;100.00
64192;BME280;50497;50.720;-2.084;2023-04-19T04:55:10;103507.72;;;8.33;100.00
64192;BME280;50497;50.720;-2.084;2023-04-19T04:57:37;103521.03;;;8.31;100.00
64192;BME280;50497;50.720;-2.084;2023-04-19T05:00:03;103515.78;;;8.39;100.00
64192;BME280;50497;50.720;-2.084;2023-04-19T05:02:30;103525.56;;;8.39;100.00
64192;BME280;50497;50.720;-2.084;2023-04-19T05:04:56;103506.84;;;8.34;100.00
64192;BME280;50497;50.720;-2.084;2023-04-19T05:07:21;103533.56;;;8.39;100.00
64192;BME280;50497;50.720;-2.084;2023-04-19T05:09:47;103516.72;;;8.43;100.00
64192;BME280;50497;50.720;-2.084;2023-04-19T05:12:12;103485.41;;;8.17;100.00
64192;BME280;50497;50.720;-2.084;2023-04-19T05:14:38;103524.66;;;8.41;100.00
64192;BME280;50497;50.720;-2.084;2023-04-19T05:17:04;103524.66;;;8.38;100.00
64192;BME280;50497;50.720;-2.084;2023-04-19T05:19:29;103510.34;;;8.24;100.00
64192;BME280;50497;50.720;-2.084;2023-04-19T05:21:55;103548.72;;;8.43;100.00
64192;BME280;50497;50.720;-2.084;2023-04-19T05:24:20;103532.66;;;8.35;100.00
64192;BME280;50497;50.720;-2.084;2023-04-19T05:26:47;103531.78;;;8.39;100.00
64192;BME280;50497;50.720;-2.084;2023-04-19T05:29:13;103520.13;;;8.26;100.00
64192;BME280;50497;50.720;-2.084;2023-04-19T05:31:38;103546.06;;;8.44;100.00
64192;BME280;50497;50.720;-2.084;2023-04-19T05:34:07;103538.97;;;8.48;100.00
64192;BME280;50497;50.720;-2.084;2023-04-19T05:36:40;103538.97;;;8.46;100.00
64192;BME280;50497;50.720;-2.084;2023-04-19T05:39:05;103553.19;;;8.45;100.00
64192;BME280;50497;50.720;-2.084;2023-04-19T05:41:34;103541.69;;;8.54;100.00
64192;BME280;50497;50.720;-2.084;2023-04-19T05:44:00;103510.41;;;8.35;100.00
64192;BME280;50497;50.720;-2.084;2023-04-19T05:46:25;103557.69;;;8.54;100.00
64192;BME280;50497;50.720;-2.084;2023-04-19T05:48:51;103554.13;;;8.52;100.00
64192;BME280;50497;50.720;-2.084;2023-04-19T05:51:20;103553.25;;;8.55;100.00
64192;BME280;50497;50.720;-2.084;2023-04-19T05:53:45;103553.28;;;8.59;100.00
64192;BME280;50497;50.720;-2.084;2023-04-19T05:56:11;103554.16;;;8.54;100.00
64192;BME280;50497;50.720;-2.084;2023-04-19T05:58:36;103523.75;;;8.38;100.00
64192;BME280;50497;50.720;-2.084;2023-04-19T06:01:02;103565.69;;;8.53;100.00
64192;BME280;50497;50.720;-2.084;2023-04-19T06:03:29;103555.09;;;8.66;100.00
64192;BME280;50497;50.720;-2.084;2023-04-19T06:05:54;103520.13;;;8.28;100.00
64192;BME280;50497;50.720;-2.084;2023-04-19T06:08:20;103522.88;;;8.39;100.00
64192;BME280;50497;50.720;-2.084;2023-04-19T06:10:45;103506.84;;;8.34;100.00
64192;BME280;50497;50.720;-2.084;2023-04-19T06:13:14;103374.44;;;8.47;100.00
64192;BME280;50497;50.720;-2.084;2023-04-19T06:15:40;103315.59;;;8.13;100.00
64192;BME280;50497;50.720;-2.084;2023-04-19T06:18:05;103305.97;;;8.47;100.00
64192;BME280;50497;50.720;-2.084;2023-04-19T06:20:37;103305.91;;;8.35;100.00
64192;BME280;50497;50.720;-2.084;2023-04-19T06:23:03;103248.13;;;8.42;100.00
64192;BME280;50497;50.720;-2.084;2023-04-19T06:25:28;103186.72;;;8.29;100.00
64192;BME280;50497;50.720;-2.084;2023-04-19T06:27:54;103139.63;;;8.24;100.00
64192;BME280;50497;50.720;-2.084;2023-04-19T06:30:20;103062.25;;;8.14;100.00
64192;BME280;50497;50.720;-2.084;2023-04-19T06:32:45;103030.25;;;8.31;100.00
64192;BME280;50497;50.720;-2.084;2023-04-19T06:35:11;103006.28;;;8.28;100.00
64192;BME280;50497;50.720;-2.084;2023-04-19T06:37:37;102970.72;;;8.17;100.00
64192;BME280;50497;50.720;-2.084;2023-04-19T06:40:07;102939.59;;;8.18;100.00
64192;BME280;50497;50.720;-2.084;2023-04-19T06:42:36;102903.19;;;8.06;100.00
64192;BME280;50497;50.720;-2.084;2023-04-19T06:45:02;102908.47;;;8.32;100.00
64192;BME280;50497;50.720;-2.084;2023-04-19T06:47:30;102891.59;;;8.24;100.00
64192;BME280;50497;50.720;-2.084;2023-04-19T06:49:56;102875.53;;;8.36;100.00
64192;BME280;50497;50.720;-2.084;2023-04-19T06:52:22;102867.59;;;8.25;100.00
64192;BME280;50497;50.720;-2.084;2023-04-19T06:54:48;102863.06;;;8.38;100.00
64192;BME280;50497;50.720;-2.084;2023-04-19T06:57:15;102853.34;;;8.29;100.00
64192;BME280;50497;50.720;-2.084;2023-04-19T06:59:41;102836.44;;;8.35;100.00
64192;BME280;50497;50.720;-2.084;2023-04-19T07:02:06;102829.31;;;8.39;100.00
64192;BME280;50497;50.720;-2.084;2023-04-19T07:04:32;102801.81;;;8.27;100.00
64192;BME280;50497;50.720;-2.084;2023-04-19T07:06:58;102835.53;;;8.47;100.00
64192;BME280;50497;50.720;-2.084;2023-04-19T07:09:24;102825.72;;;8.52;100.00
64192;BME280;50497;50.720;-2.084;2023-04-19T07:11:49;102789.25;;;8.48;100.00
64192;BME280;50497;50.720;-2.084;2023-04-19T07:14:20;102816.75;;;8.62;100.00
64192;BME280;50497;50.720;-2.084;2023-04-19T07:16:51;102819.44;;;8.62;100.00
64192;BME280;50497;50.720;-2.084;2023-04-19T07:19:24;102821.25;;;8.59;100.00
64192;BME280;50497;50.720;-2.084;2023-04-19T07:21:50;102814.84;;;8.81;100.00
64192;BME280;50497;50.720;-2.084;2023-04-19T07:24:16;102828.28;;;8.71;100.00
64192;BME280;50497;50.720;-2.084;2023-04-19T07:26:42;102833.47;;;8.94;100.00
64192;BME280;50497;50.720;-2.084;2023-04-19T07:29:08;102838.78;;;8.98;100.00
64192;BME280;50497;50.720;-2.084;2023-04-19T07:31:33;102837.00;;;8.97;100.00
64192;BME280;50497;50.720;-2.084;2023-04-19T07:33:59;102826.31;;;9.00;100.00
64192;BME280;50497;50.720;-2.084;2023-04-19T07:36:32;102793.41;;;8.97;100.00
64192;BME280;50497;50.720;-2.084;2023-04-19T07:38:59;102826.16;;;9.19;100.00
64192;BME280;50497;50.720;-2.084;2023-04-19T07:41:30;102812.84;;;9.10;100.00
64192;BME280;50497;50.720;-2.084;2023-04-19T07:43:56;102804.81;;;9.13;100.00
64192;BME280;50497;50.720;-2.084;2023-04-19T07:46:22;102821.56;;;9.35;100.00
64192;BME280;50497;50.720;-2.084;2023-04-19T07:48:47;102782.56;;;9.15;100.00
64192;BME280;50497;50.720;-2.084;2023-04-19T07:51:18;102815.34;;;9.31;100.00
64192;BME280;50497;50.720;-2.084;2023-04-19T07:53:46;102786.94;;;9.24;100.00
64192;BME280;50497;50.720;-2.084;2023-04-19T07:56:13;102810.72;;;9.53;100.00
64192;BME280;50497;50.720;-2.084;2023-04-19T07:58:39;102777.88;;;9.40;100.00
64192;BME280;50497;50.720;-2.084;2023-04-19T08:01:05;102816.50;;;9.94;100.00
64192;BME280;50497;50.720;-2.084;2023-04-19T08:03:35;102843.75;;;10.27;100.00
64192;BME280;50497;50.720;-2.084;2023-04-19T08:06:08;102856.66;;;10.67;100.00
64192;BME280;50497;50.720;-2.084;2023-04-19T08:08:35;102887.25;;;11.13;100.00
64192;BME280;50497;50.720;-2.084;2023-04-19T08:11:01;102971.59;;;11.46;100.00
64192;BME280;50497;50.720;-2.084;2023-04-19T08:13:28;103055.34;;;10.94;100.00
64192;BME280;50497;50.720;-2.084;2023-04-19T08:15:54;103126.88;;;10.84;100.00
64192;BME280;50497;50.720;-2.084;2023-04-19T08:18:24;103169.09;;;10.56;100.00
64192;BME280;50497;50.720;-2.084;2023-04-19T08:20:50;103210.22;;;10.42;100.00
64192;BME280;50497;50.720;-2.084;2023-04-19T08:23:21;103245.91;;;10.44;100.00
64192;BME280;50497;50.720;-2.084;2023-04-19T08:25:46;103225.53;;;10.15;100.00
64192;BME280;50497;50.720;-2.084;2023-04-19T08:28:12;103277.91;;;10.63;100.00
64192;BME280;50497;50.720;-2.084;2023-04-19T08:30:41;103288.50;;;10.77;100.00
64192;BME280;50497;50.720;-2.084;2023-04-19T08:33:11;103292.06;;;10.77;100.00
64192;BME280;50497;50.720;-2.084;2023-04-19T08:35:38;103308.56;;;11.33;100.00
64192;BME280;50497;50.720;-2.084;2023-04-19T08:38:05;103282.66;;;11.34;100.00
64192;BME280;50497;50.720;-2.084;2023-04-19T08:40:31;103210.69;;;11.76;100.00
64192;BME280;50497;50.720;-2.084;2023-04-19T08:43:04;103135.91;;;12.18;100.00
64192;BME280;50497;50.720;-2.084;2023-04-19T08:45:32;103045.94;;;11.95;100.00
64192;BME280;50497;50.720;-2.084;2023-04-19T08:48:02;103043.28;;;12.45;100.00
64192;BME280;50497;50.720;-2.084;2023-04-19T08:50:32;103025.41;;;12.44;100.00
64192;BME280;50497;50.720;-2.084;2023-04-19T08:53:02;102979.69;;;12.47;100.00
64192;BME280;50497;50.720;-2.084;2023-04-19T08:55:28;102942.66;;;12.63;100.00
64192;BME280;50497;50.720;-2.084;2023-04-19T08:57:59;102844.34;;;13.34;100.00
64192;BME280;50497;50.720;-2.084;2023-04-19T09:00:27;102680.97;;;14.62;100.00
64192;BME280;50497;50.720;-2.084;2023-04-19T09:02:59;102476.72;;;14.73;100.00
64192;BME280;50497;50.720;-2.084;2023-04-19T09:05:25;102336.47;;;15.00;100.00
64192;BME280;50497;50.720;-2.084;2023-04-19T09:07:50;102257.69;;;14.93;100.00
64192;BME280;50497;50.720;-2.084;2023-04-19T09:10:22;102090.25;;;16.53;100.00
64192;BME280;50497;50.720;-2.084;2023-04-19T09:13:01;102029.75;;;15.65;100.00
64192;BME280;50497;50.720;-2.084;2023-04-19T09:15:40;101884.28;;;16.65;100.00
64192;BME280;50497;50.720;-2.084;2023-04-19T09:18:10;101847.34;;;15.62;100.00
64192;BME280;50497;50.720;-2.084;2023-04-19T09:20:37;101868.44;;;16.41;100.00
64192;BME280;50497;50.720;-2.084;2023-04-19T09:23:17;101888.97;;;16.11;100.00
64192;BME280;50497;50.720;-2.084;2023-04-19T09:25:58;101875.72;;;16.57;100.00
64192;BME280;50497;50.720;-2.084;2023-04-19T09:28:29;101770.88;;;16.79;100.00
64192;BME280;50497;50.720;-2.084;2023-04-19T09:30:54;101813.00;;;15.66;100.00
64192;BME280;50497;50.720;-2.084;2023-04-19T09:33:39;101874.38;;;15.97;100.00
64192;BME280;50497;50.720;-2.084;2023-04-19T09:36:10;101880.44;;;15.29;100.00
64192;BME280;50497;50.720;-2.084;2023-04-19T09:38:49;101903.38;;;14.62;100.00
64192;BME280;50497;50.720;-2.084;2023-04-19T09:41:15;101892.44;;;15.05;100.00
64192;BME280;50497;50.720;-2.084;2023-04-19T09:43:42;101881.34;;;15.11;100.00
64192;BME280;50497;50.720;-2.084;2023-04-19T09:46:18;101857.72;;;16.40;100.00
64192;BME280;50497;50.720;-2.084;2023-04-19T09:51:51;101654.56;;;16.97;100.00
64192;BME280;50497;50.720;-2.084;2023-04-19T09:54:18;101725.09;;;16.13;100.00
64192;BME280;50497;50.720;-2.084;2023-04-19T09:56:45;101772.72;;;15.09;100.00
64192;BME280;50497;50.720;-2.084;2023-04-19T09:59:11;101821.22;;;15.45;100.00
64192;BME280;50497;50.720;-2.084;2023-04-19T10:04:13;101797.19;;;16.11;100.00
64192;BME280;50497;50.720;-2.084;2023-04-19T10:06:47;101672.63;;;16.80;100.00
64192;BME280;50497;50.720;-2.084;2023-04-19T10:09:14;101643.47;;;16.55;100.00
64192;BME280;50497;50.720;-2.084;2023-04-19T10:11:50;101689.19;;;16.74;100.00
64192;BME280;50497;50.720;-2.084;2023-04-19T10:14:21;101669.09;;;17.10;100.00
64192;BME280;50497;50.720;-2.084;2023-04-19T10:16:47;101644.59;;;16.51;100.00
64192;BME280;50497;50.720;-2.084;2023-04-19T10:19:19;101691.38;;;15.53;100.00
64192;BME280;50497;50.720;-2.084;2023-04-19T10:21:47;101731.13;;;15.32;100.00
64192;BME280;50497;50.720;-2.084;2023-04-19T10:24:14;101754.41;;;14.79;100.00
64192;BME280;50497;50.720;-2.084;2023-04-19T10:30:00;101814.19;;;15.06;100.00
64192;BME280;50497;50.720;-2.084;2023-04-19T10:32:41;101804.97;;;15.47;100.00
64192;BME280;50497;50.720;-2.084;2023-04-19T10:37:33;101621.13;;;17.28;100.00
64192;BME280;50497;50.720;-2.084;2023-04-19T10:40:03;101543.09;;;17.36;100.00
64192;BME280;50497;50.720;-2.084;2023-04-19T10:45:40;101528.00;;;16.59;100.00
64192;BME280;50497;50.720;-2.084;2023-04-19T10:56:14;101617.34;;;16.86;100.00
64192;BME280;50497;50.720;-2.084;2023-04-19T11:01:34;101460.19;;;17.35;100.00
64192;BME280;50497;50.720;-2.084;2023-04-19T11:04:20;101429.88;;;17.30;100.00
64192;BME280;50497;50.720;-2.084;2023-04-19T11:09:36;101432.41;;;17.19;100.00
64192;BME280;50497;50.720;-2.084;2023-04-19T11:12:13;101431.19;;;17.52;100.00
64192;BME280;50497;50.720;-2.084;2023-04-19T11:14:48;101386.81;;;18.47;100.00
64192;BME280;50497;50.720;-2.084;2023-04-19T11:17:21;101328.66;;;19.03;100.00
64192;BME280;50497;50.720;-2.084;2023-04-19T11:22:35;101389.66;;;16.97;100.00
64192;BME280;50497;50.720;-2.084;2023-04-19T11:27:36;101340.03;;;17.52;100.00
64192;BME280;50497;50.720;-2.084;2023-04-19T11:30:08;101368.50;;;17.85;100.00
64192;BME280;50497;50.720;-2.084;2023-04-19T11:32:34;101343.44;;;18.60;100.00
64192;BME280;50497;50.720;-2.084;2023-04-19T11:35:07;101372.16;;;16.88;100.00
64192;BME280;50497;50.720;-2.084;2023-04-19T11:37:38;101380.94;;;17.06;100.00
64192;BME280;50497;50.720;-2.084;2023-04-19T11:40:05;101328.50;;;17.90;100.00
64192;BME280;50497;50.720;-2.084;2023-04-19T11:42:31;101285.44;;;20.08;100.00
64192;BME280;50497;50.720;-2.084;2023-04-19T11:45:01;101267.19;;;20.21;100.00
64192;BME280;50497;50.720;-2.084;2023-04-19T11:47:27;101334.06;;;20.00;100.00
64192;BME280;50497;50.720;-2.084;2023-04-19T11:49:54;101357.00;;;20.42;100.00
64192;BME280;50497;50.720;-2.084;2023-04-19T11:52:22;101396.78;;;21.45;100.00
64192;BME280;50497;50.720;-2.084;2023-04-19T11:54:55;101491.25;;;20.64;100.00
64192;BME280;50497;50.720;-2.084;2023-04-19T11:57:40;101524.78;;;20.52;100.00
64192;BME280;50497;50.720;-2.084;2023-04-19T12:00:07;101544.22;;;19.73;100.00
64192;BME280;50497;50.720;-2.084;2023-04-19T12:02:42;101552.63;;;20.91;100.00
64192;BME280;50497;50.720;-2.084;2023-04-19T12:05:12;101577.59;;;20.36;100.00
64192;BME280;50497;50.720;-2.084;2023-04-19T12:08:00;101570.38;;;20.72;100.00
64192;BME280;50497;50.720;-2.084;2023-04-19T12:10:27;101724.69;;;20.44;100.00
64192;BME280;50497;50.720;-2.084;2023-04-19T12:12:53;101772.31;;;21.11;100.00
64192;BME280;50497;50.720;-2.084;2023-04-19T12:15:23;101835.44;;;23.02;100.00
64192;BME280;50497;50.720;-2.084;2023-04-19T12:18:08;101898.44;;;21.95;100.00
64192;BME280;50497;50.720;-2.084;2023-04-19T12:20:43;101972.50;;;21.02;100.00
64192;BME280;50497;50.720;-2.084;2023-04-19T12:23:12;101983.91;;;21.94;100.00
64192;BME280;50497;50.720;-2.084;2023-04-19T12:25:43;102012.16;;;22.64;100.00
64192;BME280;50497;50.720;-2.084;2023-04-19T12:28:11;102048.13;;;23.50;100.00
64192;BME280;50497;50.720;-2.084;2023-04-19T12:30:37;102055.13;;;20.89;100.00
64192;BME280;50497;50.720;-2.084;2023-04-19T12:33:02;102058.25;;;21.34;100.00
64192;BME280;50497;50.720;-2.084;2023-04-19T12:35:32;102035.28;;;20.86;100.00
64192;BME280;50497;50.720;-2.084;2023-04-19T12:37:59;102076.13;;;20.59;100.00
64192;BME280;50497;50.720;-2.084;2023-04-19T12:40:26;102041.19;;;19.30;100.00
64192;BME280;50497;50.720;-2.084;2023-04-19T12:42:52;101996.72;;;20.41;100.00
64192;BME280;50497;50.720;-2.084;2023-04-19T12:45:19;102001.63;;;21.52;100.00
64192;BME280;50497;50.720;-2.084;2023-04-19T12:47:46;102060.22;;;21.32;100.00
64192;BME280;50497;50.720;-2.084;2023-04-19T12:50:15;102048.94;;;21.99;100.00
64192;BME280;50497;50.720;-2.084;2023-04-19T12:52:41;102083.63;;;21.34;100.00
64192;BME280;50497;50.720;-2.084;2023-04-19T12:55:07;102096.25;;;22.35;100.00
64192;BME280;50497;50.720;-2.084;2023-04-19T12:57:33;102070.97;;;21.46;100.00
64192;BME280;50497;50.720;-2.084;2023-04-19T12:59:59;102097.78;;;21.52;100.00
64192;BME280;50497;50.720;-2.084;2023-04-19T13:02:24;102093.41;;;21.63;100.00
64192;BME280;50497;50.720;-2.084;2023-04-19T13:04:50;102093.31;;;22.01;100.00
64192;BME280;50497;50.720;-2.084;2023-04-19T13:07:17;102080.03;;;21.96;100.00
64192;BME280;50497;50.720;-2.084;2023-04-19T13:09:42;102091.16;;;22.30;100.00